Time;durP1;ratioP1;P1;durP2;ratioP2;P2;SDS_P1;SDS_P2;PMS_P1;PMS_P2;Temp;Humidity;BMP_temperature;BMP_pressure;BME280_temperature;BME280_humidity;BME280_pressure;Samples;Min_cycle;Max_cycle;Signal;HPM_P1;HPM_P2
2022/10/12 00:02:17;;;;;;;;;;;;;;;27.26;31.89;101443.88;5070507;28;1131;-41
2022/10/12 00:04:43;;;;;;;;;;;;;;;27.26;31.64;101453.84;5056794;28;1151;-41
2022/10/12 00:07:08;;;;;;;;;;;;;;;27.34;31.39;101444.91;5070891;28;1089;-41
2022/10/12 00:09:33;;;;;;;;;;;;;;;27.38;31.39;101449.81;5055589;28;1191;-41
2022/10/12 00:11:59;;;;;;;;;;;;;;;27.38;31.51;101443.56;5040058;28;1369;-40
2022/10/12 00:14:24;;;;;;;;;;;;;;;27.31;31.89;101448.78;5076412;28;1910;-41
2022/10/12 00:16:49;;;;;;;;;;;;;;;27.36;31.42;101446.41;5072636;28;2456;-41
2022/10/12 00:19:14;;;;;;;;;;;;;;;27.31;31.69;101447.94;5070468;28;1147;-41
2022/10/12 00:21:40;;;;;;;;;;;;;;;27.31;31.55;101439.84;5056183;28;1195;-42
2022/10/12 00:24:05;;;;;;;;;;;;;;;27.32;31.80;101436.97;5055832;28;1077;-40
2022/10/12 00:26:32;;;;;;;;;;;;;;;27.31;31.66;101435.28;5056737;28;1195;-41
2022/10/12 00:28:58;;;;;;;;;;;;;;;27.36;31.76;101441.00;5056268;28;1092;-41
2022/10/12 00:31:23;;;;;;;;;;;;;;;27.32;31.84;101436.97;5063912;28;1140;-40
2022/10/12 00:33:48;;;;;;;;;;;;;;;27.31;31.92;101440.66;5062382;28;1120;-40
2022/10/12 00:36:20;;;;;;;;;;;;;;;27.37;31.69;101433.78;5067492;28;1905;-44
2022/10/12 00:38:46;;;;;;;;;;;;;;;27.41;31.40;101432.41;5076010;28;1028;-43
2022/10/12 00:41:11;;;;;;;;;;;;;;;27.38;31.72;101430.91;5061510;28;1061;-42
2022/10/12 00:43:38;;;;;;;;;;;;;;;27.35;31.92;101433.94;5076031;28;1108;-42
2022/10/12 00:46:26;;;;;;;;;;;;;;;27.33;31.89;101427.00;5059425;28;1092;-42
2022/10/12 00:49:12;;;;;;;;;;;;;;;27.36;31.90;101426.69;5063037;28;1574;-43
2022/10/12 00:51:38;;;;;;;;;;;;;;;27.33;32.02;101435.09;5055155;28;1306;-40
2022/10/12 00:54:04;;;;;;;;;;;;;;;27.28;31.85;101419.41;5050887;28;1222;-41
2022/10/12 00:56:30;;;;;;;;;;;;;;;27.25;32.01;101426.00;5044120;28;1898;-42
2022/10/12 00:58:56;;;;;;;;;;;;;;;27.28;32.00;101421.28;5071588;28;1226;-42
2022/10/12 01:01:21;;;;;;;;;;;;;;;27.29;31.68;101422.97;5057728;28;942;-41
2022/10/12 01:03:47;;;;;;;;;;;;;;;27.29;31.73;101418.41;5061451;28;1004;-41
2022/10/12 01:06:12;;;;;;;;;;;;;;;27.30;31.76;101424.63;5065693;28;1131;-42
2022/10/12 01:08:38;;;;;;;;;;;;;;;27.28;32.05;101423.97;5069995;28;1230;-42
2022/10/12 01:11:03;;;;;;;;;;;;;;;27.26;32.08;101430.38;5037392;28;1183;-42
2022/10/12 01:13:28;;;;;;;;;;;;;;;27.28;32.08;101421.28;5074420;28;1204;-42
2022/10/12 01:15:56;;;;;;;;;;;;;;;27.26;31.92;101419.56;5037825;28;1910;-41
2022/10/12 01:18:24;;;;;;;;;;;;;;;27.29;31.88;101426.50;5037711;28;2743;-41
2022/10/12 01:20:55;;;;;;;;;;;;;;;27.32;32.00;101418.06;5039353;28;1144;-41
2022/10/12 01:23:24;;;;;;;;;;;;;;;27.30;31.78;101421.94;5070039;28;1179;-41
2022/10/12 01:26:04;;;;;;;;;;;;;;;27.31;31.69;101423.63;5077528;28;1147;-41
2022/10/12 01:28:48;;;;;;;;;;;;;;;27.31;31.87;101424.47;5067714;28;1099;-43
2022/10/12 01:31:32;;;;;;;;;;;;;;;27.33;31.54;101425.16;5065547;28;1112;-44
2022/10/12 01:34:06;;;;;;;;;;;;;;;27.43;31.52;101422.28;5065114;28;1088;-42
2022/10/12 01:36:34;;;;;;;;;;;;;;;27.52;31.34;101415.03;5068713;28;1906;-42
2022/10/12 01:39:13;;;;;;;;;;;;;;;27.43;31.67;101414.16;5064870;28;1280;-43
2022/10/12 01:41:41;;;;;;;;;;;;;;;27.33;31.74;101417.03;5041716;28;1156;-42
2022/10/12 01:44:06;;;;;;;;;;;;;;;27.30;32.01;101417.38;5041296;28;1176;-45
2022/10/12 01:46:32;;;;;;;;;;;;;;;27.31;31.98;101421.75;5064151;28;2320;-42
2022/10/12 01:48:58;;;;;;;;;;;;;;;27.32;31.97;101422.63;5071411;28;884;-42
2022/10/12 01:51:27;;;;;;;;;;;;;;;27.33;31.83;101425.16;5060675;28;1178;-41
2022/10/12 01:53:55;;;;;;;;;;;;;;;27.32;32.22;101420.78;5051928;28;1159;-41
2022/10/12 01:56:26;;;;;;;;;;;;;;;27.34;31.90;101421.44;5044152;28;1968;-43
2022/10/12 01:58:55;;;;;;;;;;;;;;;27.35;31.82;101430.38;5041307;28;1089;-43
2022/10/12 02:01:23;;;;;;;;;;;;;;;27.36;31.94;101432.09;5073775;28;909;-42
2022/10/12 02:03:50;;;;;;;;;;;;;;;27.33;31.83;101433.25;5060123;28;1171;-43
2022/10/12 02:06:17;;;;;;;;;;;;;;;27.34;32.20;101434.09;5040876;28;1203;-42
2022/10/12 02:08:52;;;;;;;;;;;;;;;27.33;32.06;101437.81;5040853;28;1164;-46
2022/10/12 02:11:18;;;;;;;;;;;;;;;27.33;32.32;101435.09;5069026;28;1139;-44
2022/10/12 02:13:52;;;;;;;;;;;;;;;27.38;31.89;101436.31;5043340;28;1018;-43
2022/10/12 02:16:18;;;;;;;;;;;;;;;27.48;31.84;101435.28;5050006;28;1967;-44
2022/10/12 02:18:44;;;;;;;;;;;;;;;27.45;31.88;101439.19;5059055;28;2123;-45
2022/10/12 02:21:09;;;;;;;;;;;;;;;27.49;31.60;101442.38;5041134;28;1144;-45
2022/10/12 02:23:35;;;;;;;;;;;;;;;27.47;31.63;101439.84;5058538;28;1179;-44
2022/10/12 02:26:00;;;;;;;;;;;;;;;27.47;31.90;101439.00;5059841;28;1619;-44
2022/10/12 02:28:26;;;;;;;;;;;;;;;27.46;31.81;101440.84;5049260;28;1143;-41
2022/10/12 02:30:52;;;;;;;;;;;;;;;27.51;32.02;101443.03;5060975;28;1172;-42
2022/10/12 02:33:24;;;;;;;;;;;;;;;27.48;31.86;101437.97;5050619;28;1128;-41
2022/10/12 02:35:51;;;;;;;;;;;;;;;27.47;31.96;101447.97;5039759;28;1993;-40
2022/10/12 02:38:33;;;;;;;;;;;;;;;27.43;32.05;101446.59;5040542;28;1175;-41
2022/10/12 02:41:04;;;;;;;;;;;;;;;27.39;32.14;101447.97;5040504;28;1120;-40
2022/10/12 02:43:49;;;;;;;;;;;;;;;27.41;32.00;101445.91;5040791;28;1172;-42
2022/10/12 02:46:14;;;;;;;;;;;;;;;27.38;31.78;101449.81;5040281;28;1526;-44
2022/10/12 02:48:40;;;;;;;;;;;;;;;27.43;32.39;101454.69;5052729;28;2091;-41
2022/10/12 02:51:06;;;;;;;;;;;;;;;27.30;34.06;101452.50;5041835;28;1125;-41
2022/10/12 02:53:31;;;;;;;;;;;;;;;27.39;33.89;101451.47;5052292;28;1350;-42
2022/10/12 02:56:00;;;;;;;;;;;;;;;27.29;33.88;101453.53;5039705;28;1964;-41
2022/10/12 02:58:26;;;;;;;;;;;;;;;27.31;33.81;101448.78;5061855;28;1191;-42
2022/10/12 03:00:51;;;;;;;;;;;;;;;27.30;33.87;101447.09;5059186;28;1117;-41
2022/10/12 03:03:16;;;;;;;;;;;;;;;27.34;33.39;101447.63;5057741;28;1124;-41
2022/10/12 03:05:42;;;;;;;;;;;;;;;27.26;33.66;101449.28;5064282;28;1124;-41
2022/10/12 03:08:07;;;;;;;;;;;;;;;27.30;33.27;101454.34;5065663;28;1132;-41
2022/10/12 03:10:32;;;;;;;;;;;;;;;27.28;33.38;101448.28;5057527;28;1143;-41
2022/10/12 03:12:57;;;;;;;;;;;;;;;27.24;33.70;101455.88;5056318;28;1444;-41
2022/10/12 03:15:23;;;;;;;;;;;;;;;27.23;33.88;101446.91;5073097;28;1902;-41
2022/10/12 03:17:48;;;;;;;;;;;;;;;27.24;33.48;101445.91;5065632;28;2510;-42
2022/10/12 03:20:13;;;;;;;;;;;;;;;27.20;33.53;101451.81;5057198;28;1160;-41
2022/10/12 03:22:39;;;;;;;;;;;;;;;27.19;33.75;101448.28;5077293;28;1175;-41
2022/10/12 03:25:04;;;;;;;;;;;;;;;27.17;33.98;101449.44;5072360;28;1119;-42
2022/10/12 03:27:29;;;;;;;;;;;;;;;27.22;33.80;101437.13;5073930;28;1147;-41
2022/10/12 03:29:55;;;;;;;;;;;;;;;27.23;33.48;101443.38;5057614;28;1124;-41
2022/10/12 03:32:21;;;;;;;;;;;;;;;27.20;33.36;101441.00;5056851;28;1245;-41
2022/10/12 03:34:46;;;;;;;;;;;;;;;27.23;33.40;101443.38;5056206;28;1894;-41
2022/10/12 03:37:11;;;;;;;;;;;;;;;27.24;33.64;101439.66;5064497;28;1135;-41
2022/10/12 03:39:37;;;;;;;;;;;;;;;27.21;33.63;101440.00;5071599;28;1171;-42
2022/10/12 03:42:02;;;;;;;;;;;;;;;27.18;33.67;101432.22;5056881;28;1222;-42
2022/10/12 03:44:27;;;;;;;;;;;;;;;27.29;33.54;101442.72;5056725;28;1210;-42
2022/10/12 03:46:52;;;;;;;;;;;;;;;27.28;33.42;101449.13;5062339;28;2330;-42
2022/10/12 03:49:18;;;;;;;;;;;;;;;27.36;33.12;101451.81;5059785;28;1163;-41
2022/10/12 03:51:43;;;;;;;;;;;;;;;26.83;31.64;101449.34;5056926;28;1080;-39
2022/10/12 03:54:08;;;;;;;;;;;;;;;26.70;31.54;101457.91;5069985;28;1399;-39
2022/10/12 03:56:34;;;;;;;;;;;;;;;26.33;31.12;101454.53;5056970;28;1999;-41
2022/10/12 03:58:59;;;;;;;;;;;;;;;26.03;31.51;101462.94;5063704;28;1215;-41
2022/10/12 04:01:24;;;;;;;;;;;;;;;25.13;31.82;101453.88;5068493;28;1135;-40
2022/10/12 04:03:50;;;;;;;;;;;;;;;24.61;32.34;101462.53;5061551;28;1203;-43
2022/10/12 04:06:15;;;;;;;;;;;;;;;25.16;31.49;101455.41;5076795;28;1194;-40
2022/10/12 04:08:40;;;;;;;;;;;;;;;25.19;32.01;101461.34;5062207;28;1226;-40
2022/10/12 04:11:06;;;;;;;;;;;;;;;25.24;32.29;101463.56;5067824;28;1072;-41
2022/10/12 04:13:31;;;;;;;;;;;;;;;25.36;32.07;101455.28;5055995;28;1300;-39
2022/10/12 04:16:00;;;;;;;;;;;;;;;25.35;32.05;101459.81;5056306;28;1979;-35
2022/10/12 04:18:25;;;;;;;;;;;;;;;25.33;32.03;101459.13;5056066;28;2515;-35
2022/10/12 04:20:50;;;;;;;;;;;;;;;25.34;32.33;101462.66;5056227;28;1143;-36
2022/10/12 04:23:16;;;;;;;;;;;;;;;25.44;31.92;101455.38;5038630;28;1163;-35
2022/10/12 04:25:41;;;;;;;;;;;;;;;25.43;32.18;101462.59;5069466;28;1234;-35
2022/10/12 04:28:07;;;;;;;;;;;;;;;25.52;31.59;101454.59;5056098;28;1084;-36
2022/10/12 04:30:32;;;;;;;;;;;;;;;25.59;31.64;101461.03;5056211;28;1148;-35
2022/10/12 04:32:58;;;;;;;;;;;;;;;25.44;31.81;101453.50;5056366;28;1116;-35
2022/10/12 04:35:23;;;;;;;;;;;;;;;25.40;31.92;101454.81;5068691;28;1901;-35
2022/10/12 04:37:48;;;;;;;;;;;;;;;25.48;31.70;101445.09;5061794;28;1203;-36
2022/10/12 04:40:14;;;;;;;;;;;;;;;25.47;31.59;101454.19;5066124;28;1178;-35
2022/10/12 04:42:39;;;;;;;;;;;;;;;25.50;31.49;101448.50;5056344;28;1184;-35
2022/10/12 04:45:05;;;;;;;;;;;;;;;25.40;31.40;101456.66;5056006;28;1088;-35
2022/10/12 04:47:32;;;;;;;;;;;;;;;25.32;31.43;101460.13;5060981;28;2204;-35
2022/10/12 04:49:57;;;;;;;;;;;;;;;25.21;31.50;101452.28;5064652;28;898;-35
2022/10/12 04:52:22;;;;;;;;;;;;;;;25.21;31.62;101455.81;5063827;28;1107;-34
2022/10/12 04:54:47;;;;;;;;;;;;;;;25.45;31.23;101457.06;5056894;28;1898;-35
2022/10/12 04:57:13;;;;;;;;;;;;;;;25.42;31.20;101451.97;5059982;28;1136;-35
2022/10/12 04:59:38;;;;;;;;;;;;;;;25.38;31.10;101448.75;5059689;28;1147;-35
2022/10/12 05:02:03;;;;;;;;;;;;;;;25.36;31.10;101461.50;5059748;28;1069;-34
2022/10/12 05:04:29;;;;;;;;;;;;;;;25.37;31.15;101471.28;5060172;28;1198;-34
2022/10/12 05:06:54;;;;;;;;;;;;;;;25.48;30.98;101467.50;5074091;28;1171;-34
2022/10/12 05:09:19;;;;;;;;;;;;;;;25.41;30.75;101471.81;5060286;28;1192;-33
2022/10/12 05:11:45;;;;;;;;;;;;;;;25.35;30.91;101475.13;5059937;28;1302;-33
2022/10/12 05:14:10;;;;;;;;;;;;;;;25.27;30.98;101476.75;5065590;28;918;-33
2022/10/12 05:16:35;;;;;;;;;;;;;;;25.34;30.84;101482.34;5077770;28;2570;-34
2022/10/12 05:19:01;;;;;;;;;;;;;;;25.30;30.71;101483.66;5059729;28;1048;-34
2022/10/12 05:21:26;;;;;;;;;;;;;;;25.23;30.82;101485.25;5059788;28;1116;-34
2022/10/12 05:23:51;;;;;;;;;;;;;;;25.17;31.04;101484.06;5061306;28;1167;-34
2022/10/12 05:26:17;;;;;;;;;;;;;;;25.22;30.95;101484.44;5079078;28;892;-34
2022/10/12 05:28:42;;;;;;;;;;;;;;;25.62;30.89;101493.06;5065692;28;1096;-34
2022/10/12 05:31:07;;;;;;;;;;;;;;;25.89;30.89;101490.47;5073189;28;1433;-35
2022/10/12 05:33:32;;;;;;;;;;;;;;;25.72;31.17;101498.41;5059765;28;1099;-35
2022/10/12 05:35:58;;;;;;;;;;;;;;;25.74;31.12;101509.03;5059392;28;1898;-36
2022/10/12 05:38:23;;;;;;;;;;;;;;;25.68;31.12;101511.34;5068651;28;857;-36
2022/10/12 05:40:49;;;;;;;;;;;;;;;25.74;31.10;101511.72;5063720;28;1116;-37
2022/10/12 05:43:14;;;;;;;;;;;;;;;25.71;31.31;101518.25;5059434;28;1151;-37
2022/10/12 05:45:39;;;;;;;;;;;;;;;25.66;31.31;101523.25;5059228;28;1084;-37
2022/10/12 05:48:04;;;;;;;;;;;;;;;25.66;31.54;101528.66;5064253;28;1789;-36
2022/10/12 05:50:30;;;;;;;;;;;;;;;25.70;31.57;101521.97;5068436;28;1134;-36
2022/10/12 05:52:55;;;;;;;;;;;;;;;25.71;31.18;101528.22;5058748;28;1162;-36
2022/10/12 05:55:20;;;;;;;;;;;;;;;25.75;31.03;101535.81;5059160;28;1898;-36
2022/10/12 05:57:48;;;;;;;;;;;;;;;25.78;31.38;101529.25;5059076;28;1214;-35
2022/10/12 06:00:14;;;;;;;;;;;;;;;25.82;30.87;101535.19;5076074;28;1132;-36
2022/10/12 06:02:39;;;;;;;;;;;;;;;25.87;31.06;101538.28;5078643;28;889;-36
2022/10/12 06:05:04;;;;;;;;;;;;;;;25.90;31.02;101541.50;5063747;28;1108;-34
2022/10/12 06:07:30;;;;;;;;;;;;;;;25.87;30.99;101541.81;5059066;28;1116;-36
2022/10/12 06:09:55;;;;;;;;;;;;;;;25.98;31.10;101546.13;5058265;28;1124;-35
2022/10/12 06:12:20;;;;;;;;;;;;;;;26.17;31.21;101538.84;5058557;28;1235;-35
2022/10/12 06:14:45;;;;;;;;;;;;;;;26.13;30.97;101545.56;5058717;28;1914;-35
2022/10/12 06:17:11;;;;;;;;;;;;;;;26.26;31.13;101547.81;5064757;28;2397;-36
2022/10/12 06:19:36;;;;;;;;;;;;;;;26.11;31.36;101550.28;5069529;28;1139;-36
2022/10/12 06:22:01;;;;;;;;;;;;;;;26.14;31.17;101550.78;5058539;28;1152;-36
2022/10/12 06:24:27;;;;;;;;;;;;;;;26.04;31.34;101552.75;5065153;28;1124;-36
2022/10/12 06:26:52;;;;;;;;;;;;;;;26.12;31.07;101544.72;5065885;28;1163;-35
2022/10/12 06:29:17;;;;;;;;;;;;;;;26.12;30.96;101550.13;5058096;28;1158;-36
2022/10/12 06:31:42;;;;;;;;;;;;;;;26.17;31.00;101547.78;5058809;28;1136;-36
2022/10/12 06:34:08;;;;;;;;;;;;;;;26.21;30.94;101553.69;5058636;28;1179;-36
2022/10/12 06:36:33;;;;;;;;;;;;;;;26.29;30.67;101558.31;5058211;28;1902;-36
2022/10/12 06:38:58;;;;;;;;;;;;;;;26.33;31.01;101548.06;5057788;28;1140;-36
2022/10/12 06:41:24;;;;;;;;;;;;;;;26.37;30.78;101553.03;5058547;28;1230;-36
2022/10/12 06:43:49;;;;;;;;;;;;;;;26.39;30.56;101553.69;5057928;28;1155;-36
2022/10/12 06:46:14;;;;;;;;;;;;;;;26.41;30.24;101558.91;5057852;28;1449;-36
2022/10/12 06:48:40;;;;;;;;;;;;;;;26.48;30.49;101553.75;5077107;28;2611;-36
2022/10/12 06:51:05;;;;;;;;;;;;;;;26.48;30.53;101546.50;5073037;28;1119;-37
2022/10/12 06:53:31;;;;;;;;;;;;;;;26.57;30.61;101546.56;5070152;28;1167;-37
2022/10/12 06:55:57;;;;;;;;;;;;;;;26.52;30.04;101547.88;5057342;28;1924;-37
2022/10/12 06:58:22;;;;;;;;;;;;;;;26.53;30.21;101546.88;5061627;28;1144;-36
2022/10/12 07:00:48;;;;;;;;;;;;;;;26.52;30.30;101542.50;5057976;28;1064;-36
2022/10/12 07:03:13;;;;;;;;;;;;;;;26.56;30.03;101543.00;5068847;28;1131;-35
2022/10/12 07:05:38;;;;;;;;;;;;;;;26.52;30.15;101550.59;5077964;28;1198;-38
2022/10/12 07:08:04;;;;;;;;;;;;;;;26.54;30.19;101555.81;5065948;28;949;-36
2022/10/12 07:10:29;;;;;;;;;;;;;;;26.67;29.41;101546.44;5043019;28;1084;-37
2022/10/12 07:12:54;;;;;;;;;;;;;;;26.69;29.68;101552.53;5067817;28;1186;-37
2022/10/12 07:15:19;;;;;;;;;;;;;;;26.77;30.31;101561.53;5068536;28;1921;-37
2022/10/12 07:17:45;;;;;;;;;;;;;;;26.80;31.18;101548.69;5065529;28;2659;-37
2022/10/12 07:20:10;;;;;;;;;;;;;;;26.83;31.14;101545.66;5057551;28;1136;-37
2022/10/12 07:22:35;;;;;;;;;;;;;;;26.86;30.75;101548.88;5057301;28;1148;-37
2022/10/12 07:25:01;;;;;;;;;;;;;;;26.85;31.38;101554.44;5057125;28;1120;-37
2022/10/12 07:27:26;;;;;;;;;;;;;;;26.85;30.72;101555.31;5061451;28;1148;-37
2022/10/12 07:29:51;;;;;;;;;;;;;;;26.87;31.01;101561.41;5069597;28;1154;-37
2022/10/12 07:32:17;;;;;;;;;;;;;;;26.86;30.00;101556.16;5059281;28;1135;-36
2022/10/12 07:34:43;;;;;;;;;;;;;;;26.89;29.40;101562.06;5057214;28;1902;-37
2022/10/12 07:37:08;;;;;;;;;;;;;;;26.93;29.56;101559.88;5057180;28;1163;-37
2022/10/12 07:39:34;;;;;;;;;;;;;;;26.97;29.89;101563.97;5068520;28;1040;-37
2022/10/12 07:41:59;;;;;;;;;;;;;;;26.94;30.13;101563.44;5063039;28;1072;-37
2022/10/12 07:44:24;;;;;;;;;;;;;;;26.98;30.12;101560.25;5056703;28;1167;-37
2022/10/12 07:46:50;;;;;;;;;;;;;;;26.93;29.25;101559.88;5060152;28;2386;-36
2022/10/12 07:49:15;;;;;;;;;;;;;;;26.98;29.46;101559.38;5073393;28;1206;-37
2022/10/12 07:51:41;;;;;;;;;;;;;;;26.96;30.36;101569.53;5068377;28;902;-38
2022/10/12 07:54:06;;;;;;;;;;;;;;;26.94;29.72;101567.00;5060983;28;1099;-38
2022/10/12 07:56:31;;;;;;;;;;;;;;;26.94;29.06;101566.13;5056931;28;1945;-36
2022/10/12 07:58:57;;;;;;;;;;;;;;;26.96;29.70;101556.03;5056873;28;1120;-37
2022/10/12 08:01:23;;;;;;;;;;;;;;;27.05;29.74;101560.47;5068983;28;1084;-37
2022/10/12 08:03:48;;;;;;;;;;;;;;;27.09;30.80;101566.41;5065394;28;1163;-37
2022/10/12 08:06:14;;;;;;;;;;;;;;;27.08;30.64;101562.00;5056719;28;1131;-37
2022/10/12 08:08:40;;;;;;;;;;;;;;;27.05;29.74;101557.78;5056409;28;1132;-37
2022/10/12 08:11:05;;;;;;;;;;;;;;;26.74;29.51;101563.69;5056165;28;1111;-38
2022/10/12 08:13:30;;;;;;;;;;;;;;;26.88;28.90;101567.63;5056257;28;1125;-37
2022/10/12 08:15:56;;;;;;;;;;;;;;;26.96;29.77;101567.66;5068462;28;1909;-38
2022/10/12 08:18:21;;;;;;;;;;;;;;;27.17;29.81;101571.84;5059880;28;2662;-38
2022/10/12 08:20:46;;;;;;;;;;;;;;;27.07;30.27;101563.00;5056535;28;1175;-39
2022/10/12 08:23:12;;;;;;;;;;;;;;;27.12;30.31;101569.63;5055873;28;1207;-38
2022/10/12 08:25:37;;;;;;;;;;;;;;;27.08;30.01;101565.53;5056619;28;1203;-38
2022/10/12 08:28:03;;;;;;;;;;;;;;;27.05;29.97;101562.31;5055989;28;915;-38
2022/10/12 08:30:28;;;;;;;;;;;;;;;27.07;29.23;101555.75;5055552;28;1195;-39
2022/10/12 08:32:53;;;;;;;;;;;;;;;27.07;29.47;101555.75;5056328;28;1156;-39
2022/10/12 08:35:19;;;;;;;;;;;;;;;27.16;30.05;101561.19;5068232;28;1973;-39
2022/10/12 08:37:44;;;;;;;;;;;;;;;27.16;29.67;101562.03;5057847;28;1253;-39
2022/10/12 08:40:19;;;;;;;;;;;;;;;27.20;30.16;101555.28;5068513;28;935;-39
2022/10/12 08:42:47;;;;;;;;;;;;;;;27.31;30.25;101558.72;5040837;28;1131;-38
2022/10/12 08:45:39;;;;;;;;;;;;;;;27.31;30.01;101558.72;5056177;28;1092;-38
2022/10/12 08:48:07;;;;;;;;;;;;;;;27.32;30.00;101568.50;5046240;28;1954;-37
2022/10/12 08:50:32;;;;;;;;;;;;;;;27.35;30.28;101555.50;5047064;28;1194;-38
2022/10/12 08:53:09;;;;;;;;;;;;;;;27.36;29.27;101561.78;5052655;28;945;-38
2022/10/12 08:55:35;;;;;;;;;;;;;;;27.29;27.98;101561.56;5066868;28;1960;-38
2022/10/12 08:58:00;;;;;;;;;;;;;;;27.32;28.13;101558.53;5058785;28;1186;-38
2022/10/12 09:00:26;;;;;;;;;;;;;;;27.44;28.31;101559.09;5056866;28;1172;-38
2022/10/12 09:02:54;;;;;;;;;;;;;;;27.68;29.21;101567.38;5065052;28;1191;-37
2022/10/12 09:05:31;;;;;;;;;;;;;;;27.61;29.61;101568.03;5070037;28;1116;-39
2022/10/12 09:08:00;;;;;;;;;;;;;;;27.55;29.87;101566.00;5038246;28;1132;-39
2022/10/12 09:10:31;;;;;;;;;;;;;;;27.52;30.05;101571.75;5055796;28;1196;-38
2022/10/12 09:13:03;;;;;;;;;;;;;;;27.46;30.44;101572.44;5055949;28;1203;-40
2022/10/12 09:15:28;;;;;;;;;;;;;;;27.51;30.58;101573.59;5059806;28;1957;-39
2022/10/12 09:17:57;;;;;;;;;;;;;;;27.48;30.14;101564.97;5062690;28;2562;-39
2022/10/12 09:20:22;;;;;;;;;;;;;;;27.50;30.31;101582.72;5052961;28;1172;-38
2022/10/12 09:22:48;;;;;;;;;;;;;;;27.52;30.46;101574.47;5068976;28;1167;-41
2022/10/12 09:25:14;;;;;;;;;;;;;;;27.49;30.23;101581.03;5055714;28;1175;-41
2022/10/12 09:27:39;;;;;;;;;;;;;;;27.54;30.63;101574.28;5060699;28;1188;-41
2022/10/12 09:30:05;;;;;;;;;;;;;;;27.51;30.37;101565.50;5046980;28;1222;-41
2022/10/12 09:32:39;;;;;;;;;;;;;;;27.54;30.28;101563.47;5055844;28;1140;-42
2022/10/12 09:35:06;;;;;;;;;;;;;;;27.54;29.96;101572.44;5037926;28;1963;-42
2022/10/12 09:37:32;;;;;;;;;;;;;;;27.59;29.92;101567.34;5037822;28;1234;-41
2022/10/12 09:39:57;;;;;;;;;;;;;;;27.54;30.29;101558.94;5056349;28;1191;-41
2022/10/12 09:42:22;;;;;;;;;;;;;;;27.52;30.44;101569.06;5041617;28;1156;-41
2022/10/12 09:44:56;;;;;;;;;;;;;;;27.58;30.47;101562.13;5059430;28;1127;-41
2022/10/12 09:47:27;;;;;;;;;;;;;;;27.62;30.51;101560.78;5041444;28;1881;-41
2022/10/12 09:49:57;;;;;;;;;;;;;;;27.58;30.33;101562.97;5059072;28;1065;-41
2022/10/12 09:52:23;;;;;;;;;;;;;;;27.57;30.47;101561.28;5058601;28;1116;-41
2022/10/12 09:54:52;;;;;;;;;;;;;;;27.52;30.55;101552.84;5058974;28;1941;-41
2022/10/12 09:57:18;;;;;;;;;;;;;;;27.59;30.38;101551.13;5059233;28;1127;-40
2022/10/12 09:59:44;;;;;;;;;;;;;;;27.61;30.10;101551.00;5054027;28;1193;-42
2022/10/12 10:02:09;;;;;;;;;;;;;;;27.64;30.15;101547.97;5061071;28;1009;-41
2022/10/12 10:04:35;;;;;;;;;;;;;;;27.68;29.65;101543.94;5078515;28;1123;-41
2022/10/12 10:07:13;;;;;;;;;;;;;;;27.68;29.99;101543.94;5058204;28;1163;-41
2022/10/12 10:09:38;;;;;;;;;;;;;;;27.66;29.68;101548.63;5058675;28;1096;-40
2022/10/12 10:12:10;;;;;;;;;;;;;;;27.65;29.75;101541.53;5067807;28;2018;-40
2022/10/12 10:14:36;;;;;;;;;;;;;;;27.64;30.24;101542.56;5072277;28;2227;-41
2022/10/12 10:17:01;;;;;;;;;;;;;;;27.66;29.96;101542.38;5070918;28;1910;-40
2022/10/12 10:19:26;;;;;;;;;;;;;;;27.62;30.17;101534.63;5062936;28;2058;-40
2022/10/12 10:21:52;;;;;;;;;;;;;;;27.58;30.05;101529.69;5043630;28;1936;-40
2022/10/12 10:24:26;;;;;;;;;;;;;;;27.63;30.04;101536.28;5070331;28;2018;-40
2022/10/12 10:26:55;;;;;;;;;;;;;;;27.65;30.36;101530.72;5071004;28;2072;-41
2022/10/12 10:29:20;;;;;;;;;;;;;;;27.59;30.05;101532.22;5066771;28;1761;-41
2022/10/12 10:31:46;;;;;;;;;;;;;;;27.60;30.37;101538.47;5070892;28;2206;-40
2022/10/12 10:34:17;;;;;;;;;;;;;;;27.65;30.67;101522.63;5070340;28;1834;-40
2022/10/12 10:36:49;;;;;;;;;;;;;;;27.70;30.03;101528.41;5045475;28;2182;-40
2022/10/12 10:39:22;;;;;;;;;;;;;;;27.70;30.11;101535.66;5040285;28;1945;-40
2022/10/12 10:41:47;;;;;;;;;;;;;;;27.57;30.25;101533.41;5049823;28;1988;-41
2022/10/12 10:44:40;;;;;;;;;;;;;;;27.52;30.04;101531.22;5060980;28;2340;-41
2022/10/12 10:47:09;;;;;;;;;;;;;;;27.48;30.13;101527.16;5068181;28;1813;-41
2022/10/12 10:49:41;;;;;;;;;;;;;;;27.38;29.64;101527.31;5069506;28;1132;-41
2022/10/12 10:52:07;;;;;;;;;;;;;;;27.41;29.97;101518.84;5040893;28;1111;-42
2022/10/12 10:54:35;;;;;;;;;;;;;;;27.48;30.14;101527.16;5057808;28;1088;-41
2022/10/12 10:57:00;;;;;;;;;;;;;;;27.48;30.44;101521.75;5057938;28;1952;-41
2022/10/12 10:59:29;;;;;;;;;;;;;;;27.55;30.06;101517.38;5058056;28;1123;-41
2022/10/12 11:01:54;;;;;;;;;;;;;;;27.51;30.18;101529.50;5057899;28;1120;-41
2022/10/12 11:04:24;;;;;;;;;;;;;;;27.49;30.19;101518.88;5040152;28;1092;-41
2022/10/12 11:06:51;;;;;;;;;;;;;;;27.44;30.33;101518.56;5071441;28;1182;-41
2022/10/12 11:09:18;;;;;;;;;;;;;;;27.47;30.20;101510.09;5072660;28;1242;-41
2022/10/12 11:11:43;;;;;;;;;;;;;;;27.42;29.85;101512.47;5057867;28;1211;-40
2022/10/12 11:14:32;;;;;;;;;;;;;;;27.47;29.67;101504.72;5040012;28;1222;-41
2022/10/12 11:16:57;;;;;;;;;;;;;;;27.47;29.96;101507.41;5058457;28;2429;-41
2022/10/12 11:19:24;;;;;;;;;;;;;;;27.47;29.84;101506.56;5039448;28;1160;-41
2022/10/12 11:21:50;;;;;;;;;;;;;;;27.47;30.27;101503.84;5039730;28;1104;-42
2022/10/12 11:24:33;;;;;;;;;;;;;;;27.49;30.31;101520.75;5053342;28;1117;-41
2022/10/12 11:27:09;;;;;;;;;;;;;;;27.38;29.74;101505.69;5039846;28;1112;-41
2022/10/12 11:29:34;;;;;;;;;;;;;;;27.36;29.71;101511.25;5052336;28;1004;-40
2022/10/12 11:32:06;;;;;;;;;;;;;;;27.45;29.88;101503.16;5049282;28;1257;-41
2022/10/12 11:34:35;;;;;;;;;;;;;;;27.47;30.20;101504.72;5040160;28;1261;-41
2022/10/12 11:37:01;;;;;;;;;;;;;;;27.50;29.79;101511.63;5039516;28;1906;-42
2022/10/12 11:39:36;;;;;;;;;;;;;;;27.48;29.24;101505.53;5057464;28;1061;-43
2022/10/12 11:42:02;;;;;;;;;;;;;;;27.46;29.63;101508.41;5058702;28;897;-42
2022/10/12 11:44:30;;;;;;;;;;;;;;;27.50;29.73;101500.81;5045222;28;1147;-42
2022/10/12 11:46:57;;;;;;;;;;;;;;;27.49;30.02;101504.53;5058869;28;2413;-41
2022/10/12 11:49:26;;;;;;;;;;;;;;;27.45;29.37;101504.03;5059189;28;1005;-41
2022/10/12 11:51:51;;;;;;;;;;;;;;;27.39;27.93;101499.28;5062783;28;1159;-41
2022/10/12 11:54:20;;;;;;;;;;;;;;;27.35;28.14;101506.88;5040569;28;930;-41
2022/10/12 11:56:47;;;;;;;;;;;;;;;27.33;28.04;101508.91;5056689;28;1951;-40
2022/10/12 11:59:17;;;;;;;;;;;;;;;27.25;27.68;101495.38;5038313;28;1302;-41
2022/10/12 12:01:42;;;;;;;;;;;;;;;26.96;27.18;101494.75;5056512;28;1229;-41
2022/10/12 12:04:26;;;;;;;;;;;;;;;27.09;27.74;101496.19;5059486;28;1183;-41
2022/10/12 12:06:54;;;;;;;;;;;;;;;27.23;28.64;101491.97;5069674;28;1180;-40
2022/10/12 12:09:20;;;;;;;;;;;;;;;27.36;29.22;101497.75;5057477;28;927;-41
2022/10/12 12:11:45;;;;;;;;;;;;;;;27.48;29.06;101492.88;5071401;28;1009;-42
2022/10/12 12:14:20;;;;;;;;;;;;;;;27.50;29.41;101498.97;5061287;28;1084;-40
2022/10/12 12:16:45;;;;;;;;;;;;;;;27.47;29.55;101493.03;5081088;28;2245;-40
2022/10/12 12:19:12;;;;;;;;;;;;;;;27.46;29.74;101488.66;5051558;28;1244;-41
2022/10/12 12:21:55;;;;;;;;;;;;;;;27.46;29.56;101494.88;5074879;28;949;-43
2022/10/12 12:24:21;;;;;;;;;;;;;;;27.49;29.42;101499.13;5056121;28;1084;-41
2022/10/12 12:26:46;;;;;;;;;;;;;;;27.44;29.22;101493.38;5038011;28;1112;-42
2022/10/12 12:29:16;;;;;;;;;;;;;;;27.37;29.98;101490.50;5055671;28;1151;-41
2022/10/12 12:31:41;;;;;;;;;;;;;;;27.36;30.00;101491.53;5038219;28;1160;-41
2022/10/12 12:34:13;;;;;;;;;;;;;;;27.33;30.27;101489.97;5037786;28;1132;-40
2022/10/12 12:36:41;;;;;;;;;;;;;;;27.31;30.45;101488.47;5038387;28;1902;-40
2022/10/12 12:39:07;;;;;;;;;;;;;;;27.32;30.46;101485.59;5040287;28;1164;-40
2022/10/12 12:41:44;;;;;;;;;;;;;;;27.37;30.24;101485.94;5049470;28;1131;-38
2022/10/12 12:44:30;;;;;;;;;;;;;;;27.45;30.25;101490.50;5064754;28;1178;-40
2022/10/12 12:46:55;;;;;;;;;;;;;;;27.49;30.23;101491.03;5059517;28;2382;-40
2022/10/12 12:49:38;;;;;;;;;;;;;;;27.39;30.40;101483.09;5056219;28;1101;-38